Time;durP1;ratioP1;P1;durP2;ratioP2;P2;SDS_P1;SDS_P2;PMS_P1;PMS_P2;Temp;Humidity;BMP_temperature;BMP_pressure;BME280_temperature;BME280_humidity;BME280_pressure;Samples;Min_cycle;Max_cycle;Signal;HPM_P1;HPM_P2
2024/04/08 00:01:12;;;;;;;;;10.33;10.33;;;;;25.97;32.18;101826.13;242927;1184;88522;-72
2024/04/08 00:06:30;;;;;;;;;8.00;8.00;;;;;25.97;32.27;101822.84;242778;1180;87364;-69
2024/04/08 00:12:06;;;;;;;;;8.00;8.00;;;;;25.96;32.15;101831.45;243184;1180;58492;-69
2024/04/08 00:17:43;;;;;;;;;7.00;7.00;;;;;25.95;32.25;101837.48;243148;1183;88280;-64
2024/04/08 00:22:51;;;;;;;;;8.00;8.00;;;;;25.93;32.24;101837.70;242884;1179;88350;-67
2024/04/08 00:27:56;;;;;;;;;8.33;8.33;;;;;25.93;32.35;101845.09;243006;1184;88494;-68
2024/04/08 00:33:00;;;;;;;;;7.00;7.00;;;;;25.92;32.36;101845.59;243030;1184;88667;-65
2024/04/08 00:38:03;;;;;;;;;7.67;7.67;;;;;25.90;32.46;101846.13;243160;1180;58846;-72
2024/04/08 00:43:07;;;;;;;;;7.50;7.50;;;;;25.89;32.22;101844.30;242048;1183;88433;-66
2024/04/08 00:48:11;;;;;;;;;7.33;7.33;;;;;25.91;32.41;101844.41;242608;1183;88540;-66
2024/04/08 00:53:15;;;;;;;;;8.67;8.67;;;;;25.90;32.30;101841.20;242968;1189;88880;-68
2024/04/08 00:58:38;;;;;;;;;8.00;8.00;;;;;25.89;32.37;101839.95;242791;1183;87517;-72
2024/04/08 01:04:19;;;;;;;;;8.33;7.33;;;;;25.88;32.38;101844.04;243405;1184;89198;-69
2024/04/08 01:09:32;;;;;;;;;8.50;8.50;;;;;25.88;32.43;101848.42;241760;1183;88403;-69
2024/04/08 01:14:49;;;;;;;;;8.00;8.00;;;;;25.89;32.31;101851.29;243628;1183;87026;-66
2024/04/08 01:20:43;;;;;;;;;8.50;8.50;;;;;25.88;32.27;101849.05;242963;1183;87562;-65
2024/04/08 01:26:03;;;;;;;;;7.33;7.33;;;;;25.90;32.20;101850.41;243089;1183;88556;-66
2024/04/08 01:31:15;;;;;;;;;9.50;9.50;;;;;25.88;32.28;101847.49;242312;1183;88738;-69
2024/04/08 01:36:51;;;;;;;;;8.00;8.00;;;;;25.88;32.32;101844.13;242793;1186;89114;-65
2024/04/08 01:42:06;;;;;;;;;7.00;7.00;;;;;25.87;32.32;101838.78;242336;1180;88158;-72
2024/04/08 01:47:41;;;;;;;;;9.75;9.75;;;;;25.87;32.25;101845.47;241857;1184;88111;-66
2024/04/08 01:53:02;;;;;;;;;9.00;9.00;;;;;25.86;32.34;101846.89;242379;1183;88601;-68
2024/04/08 01:58:37;;;;;;;;;7.00;7.00;;;;;25.85;32.26;101844.38;242876;1183;88989;-65
2024/04/08 02:03:51;;;;;;;;;10.50;10.50;;;;;25.84;32.35;101846.95;242902;1183;88212;-72
2024/04/08 02:09:30;;;;;;;;;10.50;10.50;;;;;25.84;32.35;101848.57;243089;1179;89459;-65
2024/04/08 02:14:55;;;;;;;;;10.00;10.00;;;;;25.84;32.12;101849.83;243385;1179;87580;-65
2024/04/08 02:20:35;;;;;;;;;8.00;8.00;;;;;25.83;32.30;101848.27;243368;1184;88270;-69
2024/04/08 02:25:42;;;;;;;;;10.00;10.00;;;;;25.81;32.41;101847.27;242384;1184;88447;-68
2024/04/08 02:31:19;;;;;;;;;8.00;8.00;;;;;25.80;32.50;101850.27;242739;1183;88561;-68
2024/04/08 02:36:23;;;;;;;;;10.00;10.00;;;;;25.80;32.18;101855.23;242375;1179;88701;-68
2024/04/08 02:41:57;;;;;;;;;7.00;7.00;;;;;25.80;32.32;101852.70;243185;1183;87841;-69
2024/04/08 02:47:08;;;;;;;;;9.00;8.00;;;;;25.79;32.33;101856.38;242761;1183;88197;-68
2024/04/08 02:52:43;;;;;;;;;8.00;8.00;;;;;25.78;32.42;101857.52;243355;1184;88460;-71
2024/04/08 02:58:14;;;;;;;;;11.00;9.00;;;;;25.78;32.36;101858.33;242161;1185;89006;-68
2024/04/08 03:03:49;;;;;;;;;8.00;8.00;;;;;25.78;32.43;101863.53;242842;1185;87729;-68
2024/04/08 03:09:04;;;;;;;;;10.00;8.00;;;;;25.77;32.29;101862.63;241722;1185;88480;-72
2024/04/08 03:14:39;;;;;;;;;9.00;9.00;;;;;25.77;32.26;101858.08;242708;1186;87225;-65
2024/04/08 03:20:14;;;;;;;;;9.00;9.00;;;;;25.78;32.44;101856.84;243219;1185;88095;-71
2024/04/08 03:25:18;;;;;;;;;7.67;7.67;;;;;25.76;32.34;101858.41;241868;1186;88749;-73
2024/04/08 03:30:46;;;;;;;;;9.50;9.50;;;;;25.73;32.30;101860.16;242661;1185;88573;-65
2024/04/08 03:36:21;;;;;;;;;10.00;10.00;;;;;25.64;32.17;101860.64;242427;1182;88604;-69
2024/04/08 03:41:45;;;;;;;;;13.00;11.00;;;;;25.60;32.21;101865.48;242415;1184;88829;-74
2024/04/08 03:47:21;;;;;;;;;11.50;11.50;;;;;25.60;32.18;101866.92;243181;1180;89323;-68
2024/04/08 03:52:25;;;;;;;;;15.00;13.50;;;;;25.60;32.22;101865.02;242528;1185;88755;-68
2024/04/08 03:58:01;;;;;;;;;13.50;12.00;;;;;25.59;32.07;101868.56;242878;1185;88303;-65
2024/04/08 04:03:05;;;;;;;;;11.25;11.25;;;;;25.59;32.21;101870.98;242568;1185;88756;-72
2024/04/08 04:14:26;;;;;;;;;11.00;11.00;;;;;25.62;32.05;101876.16;242708;1193;87989;-69
2024/04/08 04:19:31;;;;;;;;;13.00;12.00;;;;;25.61;31.95;101878.50;241963;1184;58557;-70
2024/04/08 04:24:35;;;;;;;;;12.00;11.67;;;;;25.61;32.00;101879.30;242901;1179;88598;-72
2024/04/08 04:29:46;;;;;;;;;13.00;13.00;;;;;25.59;32.02;101883.20;242285;1184;86923;-66
2024/04/08 04:34:50;;;;;;;;;11.67;11.67;;;;;25.58;31.92;101889.90;245097;1183;87804;-70
2024/04/08 04:39:54;;;;;;;;;14.50;13.00;;;;;25.57;32.03;101889.61;244758;1183;88108;-69
2024/04/08 04:52:54;;;;;;;;;13.75;13.75;;;;;25.71;32.97;101884.74;244696;1183;87996;-74
2024/04/08 04:58:00;;;;;;;;;18.00;13.67;;;;;25.89;33.94;101883.25;244047;1179;89178;-72
2024/04/08 05:03:06;;;;;;;;;24.67;18.33;;;;;26.14;34.59;101885.79;244382;1180;88169;-74
2024/04/08 05:08:10;;;;;;;;;20.50;15.50;;;;;26.31;35.23;101885.64;244129;1183;89143;-75
2024/04/08 05:13:17;;;;;;;;;18.00;14.75;;;;;26.48;35.65;101883.73;244871;1179;89104;-72
2024/04/08 05:18:21;;;;;;;;;17.25;15.75;;;;;26.71;36.52;101883.28;244648;1180;88519;-70
2024/04/08 05:23:26;;;;;;;;;16.25;15.25;;;;;26.90;36.99;101880.20;244765;1183;88942;-70
2024/04/08 05:28:30;;;;;;;;;20.50;17.75;;;;;27.06;37.22;101881.79;244616;1180;88657;-70
2024/04/08 05:33:37;;;;;;;;;16.50;15.50;;;;;27.19;37.53;101879.34;245030;1179;89877;-69
2024/04/08 05:38:40;;;;;;;;;16.25;15.25;;;;;27.31;37.79;101878.86;244752;1182;87815;-70
2024/04/08 05:44:48;;;;;;;;;19.00;17.00;;;;;27.41;37.94;101878.48;244416;1182;88840;-74
2024/04/08 05:49:53;;;;;;;;;17.25;17.00;;;;;27.53;38.15;101877.61;244834;1192;88596;-69
2024/04/08 05:54:56;;;;;;;;;18.67;15.67;;;;;27.59;38.53;101877.46;242224;1179;59503;-67
2024/04/08 06:00:01;;;;;;;;;18.50;17.00;;;;;27.65;38.60;101880.19;242724;1180;89245;-66
2024/04/08 06:05:08;;;;;;;;;22.50;19.25;;;;;27.48;37.67;101890.27;244390;1183;87754;-66
2024/04/08 06:10:13;;;;;;;;;18.00;16.25;;;;;27.38;37.84;101890.52;244435;1183;89006;-67
2024/04/08 06:15:16;;;;;;;;;19.50;17.50;;;;;27.48;38.09;101896.47;244656;1180;88497;-69
2024/04/08 06:20:20;;;;;;;;;21.75;20.50;;;;;27.58;38.11;101906.02;244516;1179;88172;-66
2024/04/08 06:25:24;;;;;;;;;23.25;21.50;;;;;27.67;38.57;101911.98;244994;1183;88223;-68
2024/04/08 06:30:28;;;;;;;;;21.00;18.25;;;;;27.78;38.69;101907.29;244743;1185;89014;-74
2024/04/08 06:35:32;;;;;;;;;18.00;17.50;;;;;27.86;38.58;101907.37;244613;1182;88198;-73
2024/04/08 06:40:36;;;;;;;;;18.33;16.33;;;;;27.93;38.88;101909.63;244651;1183;87193;-73
2024/04/08 06:45:40;;;;;;;;;17.00;17.00;;;;;27.98;39.14;101909.73;244645;1183;88068;-71
2024/04/08 06:50:43;;;;;;;;;15.75;15.75;;;;;28.06;39.44;101907.92;244673;1184;88088;-71
2024/04/08 06:55:50;;;;;;;;;20.00;18.00;;;;;28.11;39.28;101905.79;244670;1180;90324;-72
2024/04/08 07:00:54;;;;;;;;;20.00;19.00;;;;;27.88;37.30;101915.39;244773;1179;88604;-74
2024/04/08 07:05:59;;;;;;;;;22.00;21.00;;;;;27.67;38.15;101922.09;244550;1180;88356;-73
2024/04/08 07:11:04;;;;;;;;;20.50;18.75;;;;;27.80;40.32;101919.79;244551;1180;87921;-68
2024/04/08 07:16:10;;;;;;;;;21.50;19.50;;;;;27.96;41.53;101913.35;244608;1179;88002;-67
2024/04/08 07:21:14;;;;;;;;;22.00;20.75;;;;;28.11;43.52;101915.27;244784;1179;89864;-68
2024/04/08 07:26:32;;;;;;;;;24.33;21.33;;;;;28.24;44.25;101918.59;244555;1183;88159;-80
2024/04/08 07:31:40;;;;;;;;;22.00;20.00;;;;;28.26;43.54;101916.82;244646;1181;89872;-77
2024/04/08 07:36:44;;;;;;;;;22.67;21.00;;;;;28.13;42.26;101920.23;245048;1179;88981;-72
2024/04/08 07:41:48;;;;;;;;;20.50;18.50;;;;;28.06;41.23;101917.31;244869;1179;88544;-74
2024/04/08 07:46:54;;;;;;;;;25.00;22.00;;;;;27.97;39.37;101911.73;244755;1179;88690;-75
2024/04/08 07:51:59;;;;;;;;;18.00;15.50;;;;;27.92;38.83;101914.91;244799;1180;88329;-80
2024/04/08 07:57:06;;;;;;;;;19.00;15.67;;;;;27.90;37.30;101916.18;244787;1181;88576;-73
2024/04/08 08:02:10;;;;;;;;;16.75;15.50;;;;;27.70;36.74;101920.80;244675;1183;87804;-75
2024/04/08 08:07:14;;;;;;;;;15.00;15.00;;;;;27.70;36.66;101920.20;244553;1183;89122;-75
2024/04/08 08:12:19;;;;;;;;;14.25;14.00;;;;;27.72;34.30;101920.79;244576;1180;88948;-73
2024/04/08 08:17:26;;;;;;;;;14.00;13.00;;;;;27.66;33.73;101920.41;244919;1179;88072;-70
2024/04/08 08:22:29;;;;;;;;;15.00;14.00;;;;;27.61;34.18;101913.98;244609;1182;87719;-69
2024/04/08 08:27:33;;;;;;;;;13.00;11.67;;;;;27.41;33.50;101919.69;244672;1186;88803;-69
2024/04/08 08:32:37;;;;;;;;;9.25;9.00;;;;;27.17;33.12;101914.56;244883;1179;88889;-70
2024/04/08 08:37:41;;;;;;;;;9.25;9.00;;;;;26.98;32.72;101912.45;244966;1183;89135;-70
2024/04/08 08:42:51;;;;;;;;;11.50;10.00;;;;;26.88;32.70;101910.33;244746;1183;88390;-71
2024/04/08 08:47:54;;;;;;;;;11.00;11.00;;;;;26.83;32.16;101907.67;244814;1179;86533;-71
2024/04/08 08:52:58;;;;;;;;;9.00;9.00;;;;;26.77;31.72;101902.96;244597;1179;88561;-69
2024/04/08 08:58:02;;;;;;;;;9.50;9.50;;;;;26.76;31.51;101896.35;244772;1183;88259;-70
2024/04/08 09:03:18;;;;;;;;;9.00;9.00;;;;;26.75;31.43;101889.85;244594;1180;89280;-70
2024/04/08 09:08:23;;;;;;;;;9.00;9.00;;;;;26.77;31.14;101889.41;244768;1179;88747;-70
2024/04/08 09:13:29;;;;;;;;;9.00;9.00;;;;;26.80;30.61;101879.35;244591;1179;87580;-71
2024/04/08 09:18:32;;;;;;;;;9.00;9.00;;;;;26.83;30.36;101875.61;244768;1185;89636;-71
2024/04/08 09:23:42;;;;;;;;;8.50;8.50;;;;;26.83;29.89;101878.09;244920;1183;88406;-71
2024/04/08 09:28:45;;;;;;;;;8.33;8.33;;;;;26.86;29.69;101871.87;244885;1180;88731;-71
2024/04/08 09:33:49;;;;;;;;;9.33;9.33;;;;;26.91;29.23;101867.82;244838;1183;58481;-71
2024/04/08 09:38:52;;;;;;;;;7.50;7.50;;;;;26.97;29.06;101862.49;244748;1180;87836;-71
2024/04/08 09:43:56;;;;;;;;;7.67;7.67;;;;;27.03;28.77;101859.63;245058;1180;89435;-71
2024/04/08 09:49:03;;;;;;;;;8.00;8.00;;;;;27.11;28.52;101856.46;244687;1186;88097;-70
2024/04/08 09:54:20;;;;;;;;;9.00;9.00;;;;;27.21;27.76;101857.27;244818;1183;88745;-72
2024/04/08 09:59:25;;;;;;;;;7.50;7.50;;;;;27.30;27.51;101852.67;245070;1183;88809;-71
2024/04/08 10:04:33;;;;;;;;;8.00;8.00;;;;;27.37;27.20;101847.15;244745;1183;88146;-71
2024/04/08 10:09:37;;;;;;;;;8.00;7.00;;;;;27.49;27.24;101845.39;244937;1180;88345;-71
2024/04/08 10:14:42;;;;;;;;;8.00;8.00;;;;;27.60;26.80;101838.52;244742;1183;88776;-72
2024/04/08 10:19:45;;;;;;;;;7.00;7.00;;;;;27.68;26.80;101829.98;242912;1180;88537;-70
2024/04/08 10:24:48;;;;;;;;;8.00;7.50;;;;;27.81;26.52;101826.27;242254;1184;88683;-71
2024/04/08 10:30:00;;;;;;;;;9.00;9.00;;;;;28.00;26.75;101815.73;243096;1180;88664;-72
2024/04/08 10:35:07;;;;;;;;;7.50;7.50;;;;;28.17;26.35;101811.09;245005;1183;88306;-73
2024/04/08 10:40:13;;;;;;;;;6.33;6.33;;;;;28.32;26.10;101801.03;244798;1179;89700;-72
2024/04/08 10:45:21;;;;;;;;;7.25;7.25;;;;;28.45;26.20;101792.19;245014;1183;88280;-72
2024/04/08 10:50:30;;;;;;;;;8.75;8.75;;;;;28.57;26.01;101780.02;244790;1183;88811;-71
2024/04/08 10:55:33;;;;;;;;;7.00;6.67;;;;;28.69;26.32;101774.51;244854;1185;89441;-72
2024/04/08 11:00:38;;;;;;;;;7.33;7.33;;;;;28.83;25.91;101772.75;245144;1183;88192;-71
2024/04/08 11:05:41;;;;;;;;;7.00;7.00;;;;;28.92;25.91;101766.34;244750;1180;88611;-71
2024/04/08 11:10:45;;;;;;;;;7.00;7.00;;;;;28.99;25.10;101762.46;245137;1183;89222;-71
2024/04/08 11:15:49;;;;;;;;;15.50;9.00;;;;;28.87;24.67;101763.66;244801;1180;88912;-70
2024/04/08 11:20:53;;;;;;;;;9.50;8.50;;;;;28.77;25.16;101755.90;244898;1178;86883;-71
2024/04/08 11:25:56;;;;;;;;;9.75;8.25;;;;;28.81;25.09;101751.95;242545;1183;88735;-71
2024/04/08 11:31:03;;;;;;;;;9.75;8.50;;;;;28.98;24.70;101750.30;244798;1184;87780;-72
2024/04/08 11:36:07;;;;;;;;;17.75;10.25;;;;;29.12;24.83;101739.05;244944;1183;87524;-71
2024/04/08 11:41:12;;;;;;;;;11.00;10.50;;;;;29.23;24.74;101735.40;244865;1183;86579;-71
2024/04/08 11:46:15;;;;;;;;;13.75;9.25;;;;;29.32;24.52;101726.06;245185;1188;88996;-72
2024/04/08 11:51:19;;;;;;;;;12.00;7.50;;;;;29.43;24.57;101721.84;245024;1180;87857;-75
2024/04/08 11:56:23;;;;;;;;;11.50;8.00;;;;;29.51;24.67;101713.02;245144;1183;88325;-74
2024/04/08 12:01:27;;;;;;;;;8.25;7.00;;;;;29.60;24.42;101712.98;245199;1183;87927;-71
2024/04/08 12:06:32;;;;;;;;;9.00;8.00;;;;;29.67;24.36;101704.54;245261;1183;89065;-71
2024/04/08 12:11:37;;;;;;;;;8.00;7.50;;;;;29.73;24.41;101701.14;244822;1182;89295;-71
2024/04/08 12:16:40;;;;;;;;;13.50;8.75;;;;;29.76;24.42;101698.28;245071;1183;88783;-71
2024/04/08 12:21:45;;;;;;;;;12.25;8.25;;;;;29.84;24.27;101696.67;244810;1184;88126;-71
2024/04/08 12:26:49;;;;;;;;;9.75;7.50;;;;;29.88;24.31;101696.19;244824;1183;88015;-71
2024/04/08 12:31:53;;;;;;;;;12.50;9.00;;;;;29.90;24.39;101694.58;244800;1179;88004;-71
2024/04/08 12:36:56;;;;;;;;;8.00;7.67;;;;;29.93;24.26;101691.33;245187;1183;58349;-71
2024/04/08 12:42:00;;;;;;;;;15.00;10.00;;;;;29.94;24.44;101687.82;244929;1182;58482;-71
2024/04/08 12:47:05;;;;;;;;;6.75;6.50;;;;;29.94;24.41;101681.30;245199;1183;87398;-71
2024/04/08 12:52:09;;;;;;;;;13.00;7.50;;;;;29.95;24.44;101675.14;245217;1183;89132;-71
2024/04/08 12:57:12;;;;;;;;;7.67;7.67;;;;;29.95;24.44;101668.36;245045;1183;89208;-71
2024/04/08 13:02:17;;;;;;;;;9.33;9.33;;;;;29.94;24.47;101659.63;245347;1183;87576;-71
2024/04/08 13:07:20;;;;;;;;;8.00;7.75;;;;;29.94;24.43;101655.30;245165;1183;88122;-71
2024/04/08 13:12:26;;;;;;;;;15.75;7.75;;;;;29.92;24.50;101650.60;245190;1183;88296;-71
2024/04/08 13:17:29;;;;;;;;;8.00;7.33;;;;;29.91;24.55;101645.45;245364;1183;88304;-71
2024/04/08 13:22:34;;;;;;;;;10.25;7.25;;;;;29.88;24.60;101642.74;245158;1183;88615;-71
2024/04/08 13:27:38;;;;;;;;;8.50;7.50;;;;;29.87;24.40;101638.80;245346;1183;87922;-71
2024/04/08 13:32:42;;;;;;;;;8.00;7.00;;;;;29.83;24.70;101635.10;245170;1180;87749;-71
2024/04/08 13:37:46;;;;;;;;;9.00;7.50;;;;;29.81;24.71;101634.39;245122;1183;88431;-71
2024/04/08 13:42:50;;;;;;;;;9.00;5.25;;;;;29.77;24.90;101632.78;245206;1186;89437;-70
2024/04/08 13:47:53;;;;;;;;;6.25;6.25;;;;;29.74;24.85;101630.80;245135;1183;88466;-71
2024/04/08 13:52:56;;;;;;;;;8.00;6.00;;;;;29.73;24.91;101626.27;245140;1180;58447;-71
2024/04/08 13:58:00;;;;;;;;;7.50;7.00;;;;;29.82;24.79;101620.69;245385;1183;88638;-72
2024/04/08 14:03:03;;;;;;;;;9.33;6.33;;;;;29.98;24.80;101619.09;245171;1183;88705;-70
2024/04/08 14:08:08;;;;;;;;;9.67;7.67;;;;;30.10;24.59;101617.70;245176;1183;88400;-70
2024/04/08 14:13:11;;;;;;;;;8.75;8.50;;;;;30.05;24.65;101619.55;245022;1180;87688;-68
2024/04/08 14:18:14;;;;;;;;;7.00;5.75;;;;;29.90;24.86;101613.27;245076;1186;58422;-70
2024/04/08 14:23:17;;;;;;;;;7.50;7.25;;;;;29.79;24.94;101607.61;245174;1180;88006;-70
2024/04/08 14:28:20;;;;;;;;;5.67;5.67;;;;;29.68;25.14;101601.89;245189;1183;88800;-70
2024/04/08 14:33:23;;;;;;;;;5.67;5.67;;;;;29.52;25.47;101594.67;244989;1183;58480;-70
2024/04/08 14:38:26;;;;;;;;;8.75;7.50;;;;;29.39;25.73;101594.92;245172;1183;58331;-70
2024/04/08 14:43:33;;;;;;;;;7.25;7.00;;;;;29.28;25.96;101594.52;245131;1183;88568;-70
2024/04/08 14:48:49;;;;;;;;;5.50;5.50;;;;;29.19;26.10;101591.71;244900;1183;88409;-71
2024/04/08 14:53:53;;;;;;;;;9.00;7.50;;;;;29.11;26.09;101589.76;245175;1184;87913;-70
2024/04/08 14:58:56;;;;;;;;;6.75;6.75;;;;;29.03;26.28;101584.75;244893;1179;87852;-70
2024/04/08 15:04:00;;;;;;;;;7.00;6.00;;;;;28.95;26.52;101585.51;245174;1192;58379;-72
2024/04/08 15:09:05;;;;;;;;;8.25;6.75;;;;;28.86;26.41;101583.70;245152;1183;87417;-72
2024/04/08 15:14:09;;;;;;;;;7.00;7.00;;;;;28.76;26.85;101584.48;244867;1186;87513;-71
2024/04/08 15:19:12;;;;;;;;;6.50;6.00;;;;;28.63;27.05;101585.13;244851;1180;88716;-70
2024/04/08 15:24:19;;;;;;;;;6.25;6.25;;;;;28.50;27.46;101587.86;245055;1183;87895;-70
2024/04/08 15:29:23;;;;;;;;;7.00;5.00;;;;;28.38;27.52;101587.73;245130;1183;89120;-70
2024/04/08 15:34:26;;;;;;;;;7.67;7.00;;;;;28.27;27.64;101579.89;245125;1183;88784;-70
2024/04/08 15:39:29;;;;;;;;;6.75;6.75;;;;;28.18;27.88;101578.15;244833;1183;89072;-70
2024/04/08 15:44:33;;;;;;;;;7.00;6.50;;;;;28.10;28.10;101578.88;244826;1186;87616;-69
2024/04/08 15:49:36;;;;;;;;;10.75;9.00;;;;;28.01;28.07;101573.48;244843;1185;58374;-69
2024/04/08 15:54:39;;;;;;;;;5.00;5.00;;;;;27.95;28.13;101575.59;244866;1180;88744;-69
2024/04/08 15:59:43;;;;;;;;;7.25;7.25;;;;;27.89;28.21;101579.83;244839;1183;88277;-69
2024/04/08 16:04:49;;;;;;;;;6.00;5.50;;;;;27.83;28.42;101580.20;244845;1183;88782;-69
2024/04/08 16:09:53;;;;;;;;;6.50;6.50;;;;;27.77;28.70;101578.25;244828;1183;88408;-69
2024/04/08 16:14:56;;;;;;;;;7.00;6.75;;;;;27.72;28.68;101581.25;244823;1183;87585;-69
2024/04/08 16:19:59;;;;;;;;;7.33;6.33;;;;;27.67;28.79;101577.95;245050;1180;58369;-69
2024/04/08 16:25:03;;;;;;;;;7.50;7.50;;;;;27.62;28.80;101575.58;244814;1180;88023;-69
2024/04/08 16:30:07;;;;;;;;;6.50;6.00;;;;;27.58;28.85;101576.39;244927;1183;88572;-69
2024/04/08 16:35:11;;;;;;;;;6.25;6.25;;;;;27.54;28.84;101575.74;245285;1183;88554;-69
2024/04/08 16:40:14;;;;;;;;;8.00;8.00;;;;;27.50;29.18;101583.45;244927;1180;86787;-69
2024/04/08 16:45:18;;;;;;;;;7.00;7.00;;;;;27.46;29.30;101586.41;244969;1183;58933;-69
2024/04/08 16:50:21;;;;;;;;;6.50;6.50;;;;;27.43;29.25;101586.41;245309;1192;88374;-69
2024/04/08 16:55:24;;;;;;;;;8.00;8.00;;;;;27.40;29.42;101589.60;244972;1179;88570;-69
2024/04/08 17:00:48;;;;;;;;;6.25;6.25;;;;;27.36;29.28;101593.48;244989;1183;87546;-69
2024/04/08 17:06:05;;;;;;;;;7.00;6.00;;;;;27.34;29.50;101596.80;244954;1183;88911;-69
2024/04/08 17:11:10;;;;;;;;;7.00;7.00;;;;;27.30;29.50;101604.31;245051;1183;87588;-69
2024/04/08 17:16:13;;;;;;;;;7.50;7.00;;;;;27.27;29.60;101615.32;245018;1182;88434;-69
2024/04/08 17:21:17;;;;;;;;;7.00;7.00;;;;;27.24;29.61;101616.91;245041;1192;87592;-69
2024/04/08 17:26:21;;;;;;;;;7.50;6.75;;;;;27.22;29.82;101615.39;245001;1185;88817;-69
2024/04/08 17:31:24;;;;;;;;;9.00;7.00;;;;;27.18;29.80;101621.98;245009;1183;89249;-69
2024/04/08 17:36:27;;;;;;;;;6.33;6.33;;;;;27.15;29.80;101623.59;244967;1180;58435;-69
2024/04/08 17:41:31;;;;;;;;;7.75;7.00;;;;;27.13;30.03;101621.75;244987;1186;89023;-69
2024/04/08 17:46:34;;;;;;;;;6.75;6.75;;;;;27.10;30.03;101623.61;244961;1185;58744;-69
2024/04/08 17:51:38;;;;;;;;;6.75;6.75;;;;;27.08;29.66;101628.17;244990;1183;88367;-69
2024/04/08 17:56:42;;;;;;;;;8.00;7.75;;;;;27.06;29.62;101627.19;244959;1192;87362;-69
2024/04/08 18:01:46;;;;;;;;;8.75;7.50;;;;;27.05;29.75;101627.81;244928;1183;87998;-69
2024/04/08 18:06:49;;;;;;;;;6.33;6.33;;;;;27.03;29.84;101632.09;244959;1183;88384;-69
2024/04/08 18:11:52;;;;;;;;;7.00;7.00;;;;;27.01;29.92;101634.36;245162;1179;88274;-69
2024/04/08 18:17:03;;;;;;;;;6.75;6.25;;;;;26.99;29.99;101631.77;244891;1183;88511;-69
2024/04/08 18:22:07;;;;;;;;;6.00;6.00;;;;;26.97;30.04;101628.61;245157;1192;88289;-69
2024/04/08 18:27:11;;;;;;;;;9.50;9.50;;;;;26.94;29.91;101627.34;244887;1183;58424;-69
2024/04/08 18:32:15;;;;;;;;;8.75;8.00;;;;;26.93;30.13;101627.73;245147;1179;88890;-69
2024/04/08 18:37:18;;;;;;;;;7.00;7.00;;;;;26.92;30.17;101625.77;244876;1183;88168;-69
2024/04/08 18:42:22;;;;;;;;;8.50;8.50;;;;;26.90;30.21;101622.92;244892;1183;89099;-69
2024/04/08 18:47:25;;;;;;;;;7.00;7.00;;;;;26.88;30.22;101621.95;245154;1180;58369;-69
2024/04/08 18:52:28;;;;;;;;;6.00;6.00;;;;;26.86;30.24;101620.89;244901;1183;88655;-69
2024/04/08 18:57:31;;;;;;;;;6.67;6.67;;;;;26.85;30.19;101621.41;245178;1183;58436;-69
2024/04/08 19:02:34;;;;;;;;;7.67;7.00;;;;;26.84;30.17;101626.55;245106;1183;58401;-69
2024/04/08 19:07:38;;;;;;;;;7.50;7.50;;;;;26.83;30.19;101634.55;244900;1183;88454;-69
2024/04/08 19:12:43;;;;;;;;;6.25;6.25;;;;;26.82;30.31;101635.68;244907;1183;87968;-69
2024/04/08 19:17:47;;;;;;;;;9.50;9.50;;;;;26.80;30.37;101624.75;244862;1179;89704;-69
2024/04/08 19:22:52;;;;;;;;;6.50;6.50;;;;;26.79;30.35;101627.38;244874;1183;87449;-69
2024/04/08 19:27:57;;;;;;;;;6.00;6.00;;;;;26.77;30.36;101620.47;244884;1180;88095;-69
2024/04/08 19:33:00;;;;;;;;;8.00;7.50;;;;;26.76;30.40;101620.19;245122;1183;88093;-69
2024/04/08 19:38:03;;;;;;;;;8.25;7.00;;;;;26.75;30.59;101615.43;244877;1179;87968;-69
2024/04/08 19:43:07;;;;;;;;;9.00;7.00;;;;;26.74;30.61;101611.59;244873;1186;58412;-69
2024/04/08 19:48:10;;;;;;;;;7.00;7.00;;;;;26.72;30.63;101605.58;245120;1183;88298;-69
2024/04/08 19:53:13;;;;;;;;;8.25;6.50;;;;;26.70;30.61;101604.75;244820;1180;87991;-69
2024/04/08 19:58:17;;;;;;;;;6.00;6.00;;;;;26.69;30.60;101602.35;244868;1183;88286;-69
2024/04/08 20:03:21;;;;;;;;;7.25;7.25;;;;;26.68;30.46;101601.18;244907;1183;88402;-69
2024/04/08 20:08:27;;;;;;;;;6.25;6.25;;;;;26.68;30.78;101599.58;244903;1186;87409;-69
2024/04/08 20:13:39;;;;;;;;;8.00;7.33;;;;;26.67;30.66;101603.02;244838;1184;88114;-69
2024/04/08 20:18:42;;;;;;;;;8.00;8.00;;;;;26.66;30.52;101601.71;244847;1183;87394;-69
2024/04/08 20:23:46;;;;;;;;;7.75;6.00;;;;;26.66;30.62;101598.69;244825;1183;88804;-69
2024/04/08 20:28:52;;;;;;;;;8.00;8.00;;;;;26.66;30.65;101591.20;244808;1180;88772;-69
2024/04/08 20:33:56;;;;;;;;;7.75;6.25;;;;;26.65;30.84;101592.98;245041;1179;88797;-69
2024/04/08 20:39:02;;;;;;;;;7.25;7.00;;;;;26.64;30.60;101587.00;244813;1183;88112;-69
2024/04/08 20:44:05;;;;;;;;;5.25;5.25;;;;;26.64;30.72;101585.82;244828;1183;87096;-69
2024/04/08 20:49:09;;;;;;;;;8.00;6.75;;;;;26.63;30.65;101587.44;244776;1183;89215;-69
2024/04/08 20:54:12;;;;;;;;;7.75;7.00;;;;;26.62;30.60;101581.66;244796;1179;87981;-69
2024/04/08 20:59:16;;;;;;;;;8.75;8.00;;;;;26.62;30.83;101584.23;244827;1192;58390;-69
2024/04/08 21:04:19;;;;;;;;;6.67;6.67;;;;;26.61;30.76;101578.73;244797;1183;58345;-69
2024/04/08 21:09:22;;;;;;;;;7.25;7.25;;;;;26.60;30.70;101578.30;244859;1179;88319;-69
2024/04/08 21:14:26;;;;;;;;;9.00;8.00;;;;;26.60;30.74;101569.95;244869;1186;58535;-69
2024/04/08 21:19:30;;;;;;;;;7.75;7.75;;;;;26.59;30.86;101566.02;244869;1186;87891;-69
2024/04/08 21:24:33;;;;;;;;;7.00;7.00;;;;;26.59;30.83;101569.15;244862;1183;87792;-69
2024/04/08 21:29:38;;;;;;;;;7.25;7.25;;;;;26.59;30.80;101566.45;244819;1183;87088;-69
2024/04/08 21:34:41;;;;;;;;;7.00;7.00;;;;;26.58;30.85;101569.50;245073;1192;87989;-69
2024/04/08 21:39:48;;;;;;;;;6.67;6.67;;;;;26.57;30.86;101572.23;245102;1184;86239;-69
2024/04/08 21:44:51;;;;;;;;;6.50;6.50;;;;;26.57;30.97;101567.79;244866;1180;87717;-69
2024/04/08 21:49:54;;;;;;;;;7.00;7.00;;;;;26.57;30.82;101571.79;244864;1184;58881;-69
2024/04/08 21:54:59;;;;;;;;;7.50;7.50;;;;;26.57;30.80;101567.07;244864;1183;88811;-69
2024/04/08 22:00:09;;;;;;;;;8.00;8.00;;;;;26.56;30.84;101559.79;245109;1183;88906;-69
2024/04/08 22:05:12;;;;;;;;;8.00;7.00;;;;;26.55;30.72;101548.56;244860;1180;89121;-69
2024/04/08 22:10:15;;;;;;;;;6.33;6.00;;;;;26.54;30.88;101543.71;245130;1179;58481;-69
2024/04/08 22:15:18;;;;;;;;;7.50;7.50;;;;;26.53;30.84;101537.09;244907;1185;58368;-69
2024/04/08 22:20:22;;;;;;;;;6.25;6.25;;;;;26.52;30.84;101529.55;244891;1183;86949;-69
2024/04/08 22:25:26;;;;;;;;;7.67;7.67;;;;;26.53;30.83;101526.59;244863;1183;88261;-69
2024/04/08 22:30:29;;;;;;;;;7.00;7.00;;;;;26.52;30.93;101530.96;244855;1183;87724;-69
2024/04/08 22:35:33;;;;;;;;;7.00;7.00;;;;;26.52;30.96;101531.89;244860;1184;88655;-69
2024/04/08 22:40:37;;;;;;;;;8.00;7.25;;;;;26.51;30.99;101531.00;244837;1183;88675;-69
2024/04/08 22:45:41;;;;;;;;;6.67;6.67;;;;;26.51;30.87;101524.84;244853;1189;88051;-69
2024/04/08 22:50:44;;;;;;;;;7.50;7.50;;;;;26.50;30.96;101523.83;244818;1183;88619;-69
2024/04/08 22:55:48;;;;;;;;;7.33;7.33;;;;;26.48;31.02;101520.94;244883;1183;58300;-69
2024/04/08 23:00:51;;;;;;;;;9.00;8.33;;;;;26.48;30.83;101521.74;244836;1180;87891;-69
2024/04/08 23:05:56;;;;;;;;;8.00;8.00;;;;;26.47;30.96;101521.84;245141;1183;88206;-69
2024/04/08 23:10:59;;;;;;;;;7.00;7.00;;;;;26.47;31.15;101520.23;245063;1183;88431;-69
2024/04/08 23:16:03;;;;;;;;;8.75;7.00;;;;;26.46;31.12;101515.79;244824;1183;89210;-69
2024/04/08 23:21:06;;;;;;;;;8.33;8.33;;;;;26.45;30.98;101512.45;244852;1183;89377;-69
2024/04/08 23:26:12;;;;;;;;;8.00;8.00;;;;;26.44;31.17;101505.23;244800;1186;88635;-69
2024/04/08 23:31:15;;;;;;;;;9.00;8.00;;;;;26.44;31.24;101500.93;244850;1183;88100;-69
2024/04/08 23:36:21;;;;;;;;;7.00;7.00;;;;;26.44;31.18;101499.50;245089;1183;89678;-69